Time;durP1;ratioP1;P1;durP2;ratioP2;P2;SDS_P1;SDS_P2;PMS_P1;PMS_P2;Temp;Humidity;BMP_temperature;BMP_pressure;BME280_temperature;BME280_humidity;BME280_pressure;Samples;Min_cycle;Max_cycle;Signal;HPM_P1;HPM_P2
2023/02/22 00:00:26;;;;;;;;;61.50;46.25;;;;;11.06;100.00;101095.44;5020800;28;45515;-78
2023/02/22 00:02:58;;;;;;;;;56.75;45.75;;;;;11.10;100.00;101102.56;5003997;28;47423;-77
2023/02/22 00:05:25;;;;;;;;;57.25;45.00;;;;;11.06;100.00;101096.34;5020461;28;45528;-76
2023/02/22 00:07:51;;;;;;;;;61.25;47.25;;;;;11.09;100.00;101091.09;5019345;28;45500;-75
2023/02/22 00:10:19;;;;;;;;;55.75;45.25;;;;;11.07;100.00;101078.72;5036557;28;45361;-76
2023/02/22 00:12:47;;;;;;;;;61.75;45.00;;;;;11.12;100.00;101090.22;5038304;28;45271;-75
2023/02/22 00:15:16;;;;;;;;;65.75;48.00;;;;;11.14;100.00;101089.41;5002748;28;45606;-76
2023/02/22 00:17:41;;;;;;;;;62.50;47.75;;;;;11.14;100.00;101067.38;5038155;28;45321;-75
2023/02/22 00:20:12;;;;;;;;;62.25;46.00;;;;;11.18;100.00;101069.16;5020172;28;45248;-77
2023/02/22 00:22:41;;;;;;;;;62.50;46.00;;;;;11.19;100.00;101061.28;5003802;28;46226;-76
2023/02/22 00:25:07;;;;;;;;;61.75;48.00;;;;;11.22;100.00;101061.28;5003263;28;45331;-76
2023/02/22 00:27:32;;;;;;;;;61.25;47.25;;;;;11.21;100.00;101056.88;5017802;28;45277;-77
2023/02/22 00:29:58;;;;;;;;;60.25;46.75;;;;;11.26;100.00;101051.66;5038333;28;45487;-76
2023/02/22 00:32:24;;;;;;;;;63.00;46.25;;;;;11.29;100.00;101051.69;5037945;28;46658;-76
2023/02/22 00:34:53;;;;;;;;;61.50;47.25;;;;;11.28;100.00;101052.56;5041857;28;45469;-76
2023/02/22 00:37:19;;;;;;;;;62.00;48.50;;;;;11.32;100.00;101057.00;5023235;28;45401;-75
2023/02/22 00:39:48;;;;;;;;;62.00;47.50;;;;;11.31;100.00;101047.31;5020616;28;45478;-76
2023/02/22 00:42:15;;;;;;;;;66.75;49.00;;;;;11.35;100.00;101049.13;5019832;28;47839;-74
2023/02/22 00:44:41;;;;;;;;;63.00;47.25;;;;;11.37;100.00;101050.03;5019116;28;46252;-75
2023/02/22 00:47:07;;;;;;;;;60.25;49.00;;;;;11.39;100.00;101050.91;5019849;28;45300;-76
2023/02/22 00:49:33;;;;;;;;;60.25;46.50;;;;;11.42;100.00;101042.16;5010285;28;45497;-76
2023/02/22 00:51:59;;;;;;;;;67.25;50.00;;;;;11.44;100.00;101030.69;5036940;28;45838;-78
2023/02/22 00:54:24;;;;;;;;;62.25;48.75;;;;;11.46;100.00;101030.75;5036342;28;53551;-75
2023/02/22 00:56:49;;;;;;;;;65.00;52.25;;;;;11.46;100.00;101028.09;5018876;28;45462;-75
2023/02/22 00:59:15;;;;;;;;;68.00;49.50;;;;;11.46;100.00;101033.38;5020069;28;47186;-76
2023/02/22 01:01:41;;;;;;;;;68.50;50.50;;;;;11.49;100.00;101039.56;5019310;28;45998;-80
2023/02/22 01:04:07;;;;;;;;;71.00;50.50;;;;;11.48;100.00;101039.56;5002422;28;45503;-77
2023/02/22 01:06:33;;;;;;;;;60.50;46.00;;;;;11.48;100.00;101035.16;5001304;28;45732;-75
2023/02/22 01:08:58;;;;;;;;;63.00;47.50;;;;;11.49;100.00;101033.41;5037409;28;45382;-77
2023/02/22 01:11:24;;;;;;;;;65.75;51.00;;;;;11.49;100.00;101023.69;5018849;28;45334;-76
2023/02/22 01:13:52;;;;;;;;;64.75;48.75;;;;;11.49;100.00;101020.19;5019582;28;45429;-75
2023/02/22 01:16:18;;;;;;;;;69.00;54.00;;;;;11.48;100.00;101011.34;5035733;28;45493;-75
2023/02/22 01:18:44;;;;;;;;;69.75;53.25;;;;;11.47;100.00;101014.00;5037469;28;45496;-78
2023/02/22 01:21:09;;;;;;;;;71.25;52.50;;;;;11.48;100.00;101013.13;5019190;28;47809;-76
2023/02/22 01:23:34;;;;;;;;;67.50;51.25;;;;;11.48;100.00;101021.06;5018136;28;45378;-76
2023/02/22 01:26:00;;;;;;;;;71.25;51.00;;;;;11.45;100.00;101015.72;5035814;28;45952;-77
2023/02/22 01:28:25;;;;;;;;;65.50;50.75;;;;;11.46;100.00;101015.75;5018122;28;49501;-76
2023/02/22 01:30:51;;;;;;;;;65.50;50.00;;;;;11.44;100.00;101011.31;5015118;28;45569;-75
2023/02/22 01:33:16;;;;;;;;;68.25;51.00;;;;;11.45;100.00;101011.34;5002255;28;46028;-76
2023/02/22 01:35:42;;;;;;;;;65.75;47.50;;;;;11.45;100.00;101010.44;5019529;28;47323;-78
2023/02/22 01:38:12;;;;;;;;;69.00;50.50;;;;;11.42;100.00;101007.78;5014384;28;45613;-77
2023/02/22 01:40:40;;;;;;;;;62.75;49.25;;;;;11.41;100.00;101001.59;5021708;28;46972;-75
2023/02/22 01:43:18;;;;;;;;;70.00;50.25;;;;;11.42;100.00;101013.94;5018758;28;45746;-77
2023/02/22 01:45:54;;;;;;;;;64.50;53.25;;;;;11.41;100.00;101008.66;5036718;28;45380;-76
2023/02/22 01:48:38;;;;;;;;;66.50;49.50;;;;;11.38;100.00;100998.91;5018597;28;45383;-74
2023/02/22 01:51:13;;;;;;;;;69.75;53.00;;;;;11.38;100.00;100998.91;5036461;28;45413;-78
2023/02/22 01:53:44;;;;;;;;;57.25;47.50;;;;;11.37;100.00;101002.44;5031346;28;45624;-77
2023/02/22 01:56:11;;;;;;;;;65.50;49.75;;;;;11.34;100.00;100996.22;5013987;28;45548;-78
2023/02/22 01:58:40;;;;;;;;;68.00;53.00;;;;;11.35;100.00;101012.13;5011956;28;45363;-76
2023/02/22 02:01:05;;;;;;;;;70.25;53.00;;;;;11.34;100.00;101012.97;5018147;28;48068;-76
2023/02/22 02:03:34;;;;;;;;;70.00;52.25;;;;;11.35;100.00;101011.22;5035949;28;45382;-76
2023/02/22 02:06:02;;;;;;;;;70.75;53.00;;;;;11.33;100.00;101016.47;5013306;28;45682;-75
2023/02/22 02:08:28;;;;;;;;;70.50;51.25;;;;;11.33;100.00;101000.63;5018410;28;45522;-74
2023/02/22 02:10:54;;;;;;;;;0.00;0.00;;;;;11.33;100.00;101005.03;5017809;28;48336;-76
2023/02/22 02:13:19;;;;;;;;;67.25;52.75;;;;;11.31;100.00;101002.38;5017691;28;45537;-78
2023/02/22 02:15:45;;;;;;;;;65.00;51.00;;;;;11.31;100.00;101002.38;5017936;28;45451;-75
2023/02/22 02:18:12;;;;;;;;;65.75;50.25;;;;;11.26;100.00;100993.50;5018672;28;45588;-75
2023/02/22 02:20:53;;;;;;;;;71.75;53.00;;;;;11.27;100.00;100987.34;5018198;28;45434;-76
2023/02/22 02:23:39;;;;;;;;;66.25;50.00;;;;;11.24;100.00;100987.34;5034778;28;45263;-76
2023/02/22 02:26:26;;;;;;;;;69.75;53.50;;;;;11.23;100.00;100991.69;5035300;28;45320;-75
2023/02/22 02:29:06;;;;;;;;;74.00;55.25;;;;;11.21;100.00;100985.53;5033275;28;45490;-75
2023/02/22 02:32:08;;;;;;;;;73.25;54.00;;;;;11.17;100.00;100973.13;5016227;28;47789;-75
2023/02/22 02:35:02;;;;;;;;;68.75;51.75;;;;;11.20;100.00;100986.41;5036019;28;45402;-75
2023/02/22 02:37:55;;;;;;;;;72.00;54.00;;;;;11.20;100.00;100982.88;5030495;28;45468;-77
2023/02/22 02:40:21;;;;;;;;;72.00;53.00;;;;;11.18;100.00;100979.31;5035248;28;45227;-77
2023/02/22 02:42:57;;;;;;;;;68.75;52.00;;;;;11.18;100.00;100974.03;5017007;28;47546;-75
2023/02/22 02:45:30;;;;;;;;;75.75;55.75;;;;;11.17;100.00;100972.25;5029009;28;46183;-78
2023/02/22 02:47:58;;;;;;;;;76.00;55.00;;;;;11.16;100.00;100975.78;5018889;28;46134;-75
2023/02/22 02:50:30;;;;;;;;;71.25;51.25;;;;;11.14;100.00;100974.88;5023685;28;45577;-76
2023/02/22 02:53:00;;;;;;;;;74.50;55.50;;;;;11.10;100.00;100968.66;5017150;28;46438;-78
2023/02/22 02:55:28;;;;;;;;;62.50;48.75;;;;;11.07;100.00;100965.09;5017739;28;45523;-75
2023/02/22 02:57:53;;;;;;;;;69.75;53.00;;;;;11.08;100.00;100964.22;5025739;28;45422;-78
2023/02/22 03:00:23;;;;;;;;;68.25;53.75;;;;;11.04;100.00;100959.78;5000399;28;45430;-75
2023/02/22 03:03:07;;;;;;;;;71.25;53.50;;;;;11.04;100.00;100973.88;5035427;28;46562;-79
2023/02/22 03:05:53;;;;;;;;;66.50;53.00;;;;;10.99;100.00;100963.25;5033630;28;45496;-76
2023/02/22 03:08:28;;;;;;;;;66.25;53.50;;;;;10.97;100.00;100966.75;5035070;28;45269;-76
2023/02/22 03:11:17;;;;;;;;;71.50;52.50;;;;;10.94;100.00;100964.97;5017665;28;45490;-76
2023/02/22 03:13:51;;;;;;;;;69.50;52.75;;;;;10.92;100.00;100963.16;5013425;28;46100;-78
2023/02/22 03:16:44;;;;;;;;;71.50;52.50;;;;;10.88;100.00;100964.00;5035175;28;46373;-79
2023/02/22 03:19:19;;;;;;;;;72.50;52.50;;;;;10.83;100.00;100950.75;5034074;28;45540;-76
2023/02/22 03:21:56;;;;;;;;;62.50;49.75;;;;;10.77;100.00;100953.31;5035234;28;45446;-75
2023/02/22 03:24:26;;;;;;;;;60.75;48.00;;;;;10.72;100.00;100961.19;5016834;28;47485;-75
2023/02/22 03:26:55;;;;;;;;;67.25;50.50;;;;;10.70;100.00;100954.09;5034117;28;45828;-78
2023/02/22 03:29:23;;;;;;;;;72.50;52.50;;;;;10.67;100.00;100956.72;5037105;28;45386;-78
2023/02/22 03:31:53;;;;;;;;;65.50;48.50;;;;;10.60;100.00;100946.91;5021158;28;45552;-76
2023/02/22 03:34:22;;;;;;;;;58.50;43.25;;;;;10.57;100.00;100942.50;5021105;28;46723;-78
2023/02/22 03:36:54;;;;;;;;;63.50;47.75;;;;;10.56;100.00;100942.50;5001078;28;46115;-76
2023/02/22 03:39:27;;;;;;;;;59.00;44.25;;;;;10.53;100.00;100938.03;5005118;28;45547;-76
2023/02/22 03:41:53;;;;;;;;;58.75;45.50;;;;;10.51;100.00;100938.91;5020741;28;46341;-76
2023/02/22 03:44:24;;;;;;;;;53.25;41.75;;;;;10.49;100.00;100934.50;5020838;28;60605;-75
2023/02/22 03:46:51;;;;;;;;;40.75;37.75;;;;;10.47;100.00;100938.84;5020853;28;45255;-76
2023/02/22 03:49:37;;;;;;;;;49.00;38.25;;;;;10.43;100.00;100931.75;5021074;28;45511;-75
2023/02/22 03:52:04;;;;;;;;;39.75;35.25;;;;;10.48;100.00;100942.38;5019889;28;45591;-75
2023/02/22 03:54:30;;;;;;;;;36.25;30.25;;;;;10.47;100.00;100935.31;5020782;28;47498;-76
2023/02/22 03:56:59;;;;;;;;;44.00;34.00;;;;;10.52;100.00;100933.63;5018062;28;45668;-75
2023/02/22 03:59:26;;;;;;;;;33.00;30.25;;;;;10.50;100.00;100930.09;5038715;28;45388;-75
2023/02/22 04:01:56;;;;;;;;;29.75;27.50;;;;;10.52;100.00;100930.13;4997520;28;45578;-75
2023/02/22 04:04:23;;;;;;;;;38.00;27.50;;;;;10.55;100.00;100933.69;5024930;28;46864;-75
2023/02/22 04:06:48;;;;;;;;;32.25;31.00;;;;;10.57;100.00;100925.78;5015947;28;45513;-76
2023/02/22 04:09:15;;;;;;;;;36.25;27.50;;;;;10.57;100.00;100923.13;5019755;28;45271;-76
2023/02/22 04:11:40;;;;;;;;;39.00;30.75;;;;;10.56;100.00;100918.72;5036709;28;45445;-76
2023/02/22 04:14:06;;;;;;;;;40.75;29.25;;;;;10.56;100.00;100924.91;5003218;28;51256;-77
2023/02/22 04:16:31;;;;;;;;;31.75;28.00;;;;;10.57;100.00;100926.66;5014910;28;45315;-75
2023/02/22 04:18:56;;;;;;;;;38.25;28.25;;;;;10.61;100.00;100932.88;5035962;28;54109;-79
2023/02/22 04:21:22;;;;;;;;;42.00;33.75;;;;;10.60;100.00;100933.72;5037533;28;47280;-78
2023/02/22 04:23:47;;;;;;;;;35.25;27.50;;;;;10.58;100.00;100920.50;5036332;28;47018;-75
2023/02/22 04:26:13;;;;;;;;;35.75;31.75;;;;;10.59;100.00;100929.31;5019936;28;45469;-78
2023/02/22 04:28:38;;;;;;;;;40.25;31.50;;;;;10.56;100.00;100927.53;5020222;28;45446;-78
2023/02/22 04:31:03;;;;;;;;;41.00;30.25;;;;;10.60;100.00;100931.06;5019613;28;45529;-78
2023/02/22 04:33:29;;;;;;;;;37.50;31.75;;;;;10.61;100.00;100930.25;5020427;28;46346;-78
2023/02/22 04:35:56;;;;;;;;;40.25;30.00;;;;;10.64;100.00;100928.50;5002295;28;60182;-79
2023/02/22 04:38:24;;;;;;;;;35.00;31.50;;;;;10.65;100.00;100925.00;5037769;28;45559;-75
2023/02/22 04:40:50;;;;;;;;;37.25;29.25;;;;;10.61;100.00;100923.19;5019749;28;45576;-77
2023/02/22 04:43:15;;;;;;;;;45.25;33.50;;;;;10.59;100.00;100924.03;5018162;28;45446;-75
2023/02/22 04:45:41;;;;;;;;;39.25;32.25;;;;;10.60;100.00;100928.44;5012659;28;61356;-78
2023/02/22 04:48:06;;;;;;;;;37.00;32.00;;;;;10.58;100.00;100927.53;5019535;28;45188;-76
2023/02/22 04:50:31;;;;;;;;;36.50;33.50;;;;;10.57;100.00;100937.22;5020145;28;45576;-76
2023/02/22 04:52:57;;;;;;;;;33.25;29.25;;;;;10.56;100.00;100942.50;5018632;28;51676;-75
2023/02/22 04:55:22;;;;;;;;;38.50;34.75;;;;;10.49;100.00;100934.50;5017634;28;59456;-76
2023/02/22 04:57:47;;;;;;;;;32.50;29.00;;;;;10.53;100.00;100943.31;5019564;28;45336;-76
2023/02/22 05:00:17;;;;;;;;;41.75;33.25;;;;;10.48;100.00;100935.34;5016201;28;53737;-75
2023/02/22 05:02:44;;;;;;;;;39.25;31.00;;;;;10.49;100.00;100938.84;5019450;28;46303;-78
2023/02/22 05:05:12;;;;;;;;;36.25;30.25;;;;;10.48;100.00;100942.38;5019730;28;45453;-75
2023/02/22 05:07:37;;;;;;;;;36.50;32.75;;;;;10.44;100.00;100949.38;5019394;28;45347;-75
2023/02/22 05:10:02;;;;;;;;;37.50;30.75;;;;;10.45;100.00;100953.78;5019106;28;47452;-75
2023/02/22 05:12:28;;;;;;;;;43.00;34.00;;;;;10.42;100.00;100937.91;5019127;28;47395;-75
2023/02/22 05:14:53;;;;;;;;;45.75;35.25;;;;;10.43;100.00;100939.66;5035358;28;55495;-75
2023/02/22 05:17:19;;;;;;;;;44.75;37.50;;;;;10.45;100.00;100939.72;5036474;28;45469;-76
2023/02/22 05:19:44;;;;;;;;;38.25;34.00;;;;;10.43;100.00;100939.66;5032507;28;47223;-77
2023/02/22 05:22:09;;;;;;;;;50.00;34.50;;;;;10.44;100.00;100938.81;5019391;28;48657;-75
2023/02/22 05:24:35;;;;;;;;;46.25;34.75;;;;;10.45;100.00;100940.59;4990857;28;46034;-75
2023/02/22 05:27:00;;;;;;;;;46.00;37.25;;;;;10.42;100.00;100940.53;5011616;28;45301;-76
2023/02/22 05:29:25;;;;;;;;;37.00;29.50;;;;;10.42;100.00;100934.38;5017996;28;45754;-76
2023/02/22 05:31:51;;;;;;;;;37.25;31.00;;;;;10.46;100.00;100939.72;5036367;28;46968;-75
2023/02/22 05:34:16;;;;;;;;;37.25;33.25;;;;;10.46;100.00;100933.56;5018630;28;46257;-75
2023/02/22 05:36:41;;;;;;;;;48.00;33.25;;;;;10.46;100.00;100933.56;5018403;28;45463;-76
2023/02/22 05:39:07;;;;;;;;;44.00;32.50;;;;;10.45;100.00;100940.59;5018992;28;45447;-75
2023/02/22 05:41:32;;;;;;;;;35.50;31.50;;;;;10.45;100.00;100945.00;5018171;28;46711;-76
2023/02/22 05:43:58;;;;;;;;;29.75;25.00;;;;;10.43;100.00;100942.31;5035616;28;56876;-75
2023/02/22 05:46:23;;;;;;;;;39.00;31.00;;;;;10.40;100.00;100936.13;5009405;28;46886;-74
2023/02/22 05:48:49;;;;;;;;;39.50;34.00;;;;;10.41;100.00;100946.69;5026940;28;45551;-73
2023/02/22 05:51:14;;;;;;;;;29.50;23.50;;;;;10.38;100.00;100957.19;5035308;28;45928;-74
2023/02/22 05:53:41;;;;;;;;;37.50;31.75;;;;;10.39;100.00;100948.44;5036454;28;45394;-75
2023/02/22 05:56:07;;;;;;;;;45.25;35.00;;;;;10.39;100.00;100968.66;5019313;28;45361;-74
2023/02/22 05:58:32;;;;;;;;;43.00;35.50;;;;;10.33;100.00;100948.31;5015045;28;45553;-73
2023/02/22 06:00:58;;;;;;;;;40.50;33.25;;;;;10.40;100.00;100951.97;5034093;28;57580;-76
2023/02/22 06:03:24;;;;;;;;;39.25;34.50;;;;;10.41;100.00;100945.81;5018967;28;45413;-74
2023/02/22 06:05:49;;;;;;;;;45.50;35.50;;;;;10.39;100.00;100953.72;5026506;28;45484;-75
2023/02/22 06:08:14;;;;;;;;;43.75;34.75;;;;;10.42;100.00;100953.75;5026392;28;45644;-74
2023/02/22 06:10:40;;;;;;;;;37.50;31.25;;;;;10.42;100.00;100937.91;5019831;28;45996;-74
2023/02/22 06:13:05;;;;;;;;;32.00;29.00;;;;;10.47;100.00;100935.31;5018831;28;50707;-74
2023/02/22 06:15:31;;;;;;;;;33.00;24.00;;;;;10.52;100.00;100943.31;5023264;28;45371;-74
2023/02/22 06:17:57;;;;;;;;;41.25;33.50;;;;;10.55;100.00;100949.53;5017661;28;56127;-74
2023/02/22 06:20:24;;;;;;;;;33.50;29.00;;;;;10.59;100.00;100950.44;5035820;28;45520;-74
2023/02/22 06:22:51;;;;;;;;;12.00;8.25;;;;;10.60;100.00;100946.91;5016896;28;45299;-75
2023/02/22 06:25:20;;;;;;;;;37.50;30.00;;;;;10.61;100.00;100941.69;5013663;28;45214;-74
2023/02/22 06:27:46;;;;;;;;;38.75;32.50;;;;;10.64;100.00;100946.97;5018288;28;45430;-74
2023/02/22 06:30:12;;;;;;;;;44.50;34.00;;;;;10.65;100.00;100937.31;5015093;28;46873;-74
2023/02/22 06:32:38;;;;;;;;;36.00;32.00;;;;;10.69;100.00;100941.75;5015329;28;45607;-74
2023/02/22 06:35:04;;;;;;;;;31.50;28.75;;;;;10.71;100.00;100945.31;5018704;28;45434;-74
2023/02/22 06:37:29;;;;;;;;;46.25;35.50;;;;;10.71;100.00;100955.91;5036439;28;45489;-75
2023/02/22 06:39:54;;;;;;;;;39.75;32.25;;;;;10.73;100.00;100951.50;5017907;28;49683;-75
2023/02/22 06:42:20;;;;;;;;;37.75;35.00;;;;;10.75;100.00;100953.28;5034790;28;45402;-74
2023/02/22 06:44:45;;;;;;;;;41.25;35.50;;;;;10.78;100.00;100946.28;5014367;28;45278;-73
2023/02/22 06:47:10;;;;;;;;;40.50;27.00;;;;;10.89;100.00;100939.38;5027520;28;45217;-75
2023/02/22 06:49:36;;;;;;;;;33.25;28.75;;;;;10.92;100.00;100936.75;5039788;28;58912;-73
2023/02/22 06:52:04;;;;;;;;;35.50;28.25;;;;;10.93;100.00;100941.19;5020306;28;46070;-75
2023/02/22 06:54:29;;;;;;;;;22.25;17.00;;;;;10.90;100.00;100949.94;5037230;28;45422;-74
2023/02/22 06:56:55;;;;;;;;;36.00;28.75;;;;;10.90;100.00;100955.22;5029586;28;48976;-73
2023/02/22 06:59:22;;;;;;;;;36.50;32.75;;;;;10.90;100.00;100959.63;5035466;28;46776;-73
2023/02/22 07:01:47;;;;;;;;;44.25;32.00;;;;;10.87;100.00;100954.31;5034805;28;45756;-74
2023/02/22 07:04:13;;;;;;;;;41.00;35.50;;;;;10.91;100.00;100970.19;5015903;28;45596;-75
2023/02/22 07:06:38;;;;;;;;;38.50;33.25;;;;;10.93;100.00;100957.03;5034840;28;57479;-73
2023/02/22 07:09:03;;;;;;;;;34.50;33.00;;;;;10.99;100.00;100965.91;5016762;28;57380;-75
2023/02/22 07:11:29;;;;;;;;;47.75;37.25;;;;;11.05;100.00;100958.91;5030043;28;56933;-74
2023/02/22 07:13:54;;;;;;;;;37.00;31.50;;;;;11.09;100.00;100955.44;5031357;28;45435;-74
2023/02/22 07:16:20;;;;;;;;;40.50;32.75;;;;;11.11;100.00;100966.91;5032181;28;50942;-74
2023/02/22 07:18:45;;;;;;;;;41.50;32.25;;;;;11.11;100.00;100972.19;5018141;28;46346;-75
2023/02/22 07:21:11;;;;;;;;;49.50;38.00;;;;;11.09;100.00;100973.94;5020413;28;45900;-74
2023/02/22 07:23:36;;;;;;;;;41.75;33.50;;;;;11.13;100.00;100989.84;5005846;28;45489;-74
2023/02/22 07:26:04;;;;;;;;;33.25;28.00;;;;;11.18;100.00;100984.59;5032368;28;45475;-74
2023/02/22 07:28:29;;;;;;;;;44.00;37.00;;;;;11.20;100.00;100998.72;5001049;28;47632;-75
2023/02/22 07:30:54;;;;;;;;;44.00;36.00;;;;;11.23;100.00;101004.03;5034682;28;47521;-74
2023/02/22 07:33:20;;;;;;;;;45.25;35.00;;;;;11.27;100.00;100997.91;5034975;28;45484;-75
2023/02/22 07:35:48;;;;;;;;;36.75;35.50;;;;;11.27;100.00;101005.84;5035118;28;45626;-74
2023/02/22 07:38:15;;;;;;;;;33.75;32.75;;;;;11.27;100.00;100992.63;5008563;28;46443;-73
2023/02/22 07:40:41;;;;;;;;;39.00;34.00;;;;;11.31;100.00;101002.38;5016477;28;45434;-73
2023/02/22 07:43:17;;;;;;;;;44.00;34.50;;;;;11.34;100.00;101004.16;5026256;28;45474;-75
2023/02/22 07:45:43;;;;;;;;;42.25;35.75;;;;;11.36;100.00;101005.97;5017393;28;45509;-74
2023/02/22 07:48:08;;;;;;;;;47.25;38.00;;;;;11.38;100.00;101014.78;5014445;28;47477;-73
2023/02/22 07:50:34;;;;;;;;;50.75;36.25;;;;;11.41;100.00;101019.22;5035353;28;45352;-72
2023/02/22 07:53:05;;;;;;;;;39.75;34.50;;;;;11.42;100.00;101016.59;4999830;28;45513;-74
2023/02/22 07:55:32;;;;;;;;;43.50;37.50;;;;;11.44;100.00;101001.63;5015945;28;45620;-73
2023/02/22 07:58:03;;;;;;;;;49.75;39.00;;;;;11.44;100.00;101004.25;5015336;28;47562;-75
2023/02/22 08:00:32;;;;;;;;;42.00;36.75;;;;;11.46;100.00;101002.53;5034845;28;45226;-72
2023/02/22 08:02:59;;;;;;;;;51.00;39.75;;;;;11.48;100.00;100991.97;5017208;28;45519;-77
2023/02/22 08:05:26;;;;;;;;;50.50;37.25;;;;;11.50;100.00;101004.34;5165910;22;45608;-73
2023/02/22 08:07:52;;;;;;;;;42.75;36.75;;;;;11.50;100.00;101014.00;5034557;28;46598;-72
2023/02/22 08:10:19;;;;;;;;;55.00;40.00;;;;;11.48;100.00;101029.88;5034961;28;45578;-74
2023/02/22 08:12:45;;;;;;;;;43.00;37.00;;;;;11.51;100.00;101018.44;5016775;28;45553;-74
2023/02/22 08:15:29;;;;;;;;;51.50;39.25;;;;;11.52;100.00;101029.03;5018876;28;45256;-73
2023/02/22 08:17:56;;;;;;;;;48.50;37.75;;;;;11.50;100.00;101021.94;5036366;28;46909;-73
2023/02/22 08:20:22;;;;;;;;;47.00;38.25;;;;;11.53;100.00;101024.63;5038362;28;45371;-72
2023/02/22 08:22:47;;;;;;;;;53.50;40.00;;;;;11.52;100.00;101021.09;5020170;28;45326;-73
2023/02/22 08:25:14;;;;;;;;;55.00;41.00;;;;;11.49;100.00;101023.69;5038572;28;45356;-73
2023/02/22 08:27:40;;;;;;;;;53.25;39.00;;;;;11.48;100.00;101035.16;5037678;28;46772;-75
2023/02/22 08:30:07;;;;;;;;;45.25;39.00;;;;;11.48;100.00;101035.16;5014802;28;45462;-74
2023/02/22 08:32:34;;;;;;;;;52.00;39.50;;;;;11.48;100.00;101032.50;5018662;28;45595;-72
2023/02/22 08:35:00;;;;;;;;;41.75;37.00;;;;;11.49;100.00;101034.28;5017406;28;45254;-74
2023/02/22 08:37:26;;;;;;;;;52.00;39.00;;;;;11.50;100.00;101029.88;5038007;28;45841;-73
2023/02/22 08:39:52;;;;;;;;;51.25;41.25;;;;;11.51;100.00;101029.03;5019068;28;55371;-72
2023/02/22 08:42:17;;;;;;;;;47.00;38.00;;;;;11.51;100.00;101021.09;5038028;28;45514;-72
2023/02/22 08:44:43;;;;;;;;;48.75;37.75;;;;;11.49;100.00;101018.41;5037727;28;49521;-72
2023/02/22 08:47:08;;;;;;;;;50.50;41.25;;;;;11.50;100.00;101024.59;5019391;28;51999;-72
2023/02/22 08:49:34;;;;;;;;;50.75;39.75;;;;;11.53;100.00;101036.09;5037652;28;45318;-73
2023/02/22 08:51:59;;;;;;;;;54.00;42.00;;;;;11.54;100.00;101039.63;5037823;28;45302;-75
2023/02/22 08:54:24;;;;;;;;;49.25;38.75;;;;;11.57;100.00;101052.88;5037377;28;48152;-73
2023/02/22 08:56:50;;;;;;;;;51.75;37.75;;;;;11.58;100.00;101057.31;5019117;28;51671;-73
2023/02/22 08:59:16;;;;;;;;;53.00;39.25;;;;;11.62;100.00;101060.88;5038209;28;45284;-74
2023/02/22 09:01:41;;;;;;;;;54.50;41.25;;;;;11.63;100.00;101055.59;5019383;28;45331;-72
2023/02/22 09:04:06;;;;;;;;;55.00;41.75;;;;;11.61;100.00;101048.50;5037290;28;45612;-73
2023/02/22 09:06:32;;;;;;;;;52.75;38.75;;;;;11.55;100.00;101033.47;5037722;28;45697;-75
2023/02/22 09:08:57;;;;;;;;;51.50;41.00;;;;;11.63;100.00;101045.00;5036557;28;59119;-72
2023/02/22 09:11:23;;;;;;;;;55.75;40.25;;;;;11.66;100.00;101044.13;5037537;28;53051;-72
2023/02/22 09:13:48;;;;;;;;;56.00;42.00;;;;;11.69;100.00;101044.19;5034657;28;48261;-72
2023/02/22 09:16:13;;;;;;;;;54.00;42.00;;;;;11.70;100.00;101041.53;5036684;28;46695;-72
2023/02/22 09:18:39;;;;;;;;;47.25;39.50;;;;;11.73;100.00;101044.22;5037439;28;45448;-75
2023/02/22 09:21:05;;;;;;;;;54.25;39.00;;;;;11.72;100.00;101053.06;5037149;28;52998;-76
2023/02/22 09:23:30;;;;;;;;;55.50;43.00;;;;;11.74;100.00;101053.94;5036636;28;52221;-75
2023/02/22 09:25:55;;;;;;;;;55.75;42.50;;;;;11.74;100.00;101055.69;5035062;28;51489;-74
2023/02/22 09:28:21;;;;;;;;;54.75;41.75;;;;;11.79;100.00;101064.56;5018360;28;45321;-74
2023/02/22 09:30:47;;;;;;;;;56.00;42.50;;;;;11.78;100.00;101060.16;5035672;28;51348;-74
2023/02/22 09:33:14;;;;;;;;;54.00;42.00;;;;;11.82;100.00;101055.78;5018719;28;45591;-74
2023/02/22 09:35:41;;;;;;;;;59.00;44.50;;;;;11.83;100.00;101049.66;5018557;28;45731;-75
2023/02/22 09:38:07;;;;;;;;;56.00;40.25;;;;;11.84;100.00;101059.38;5025308;28;45401;-74
2023/02/22 09:40:39;;;;;;;;;51.75;39.75;;;;;11.82;100.00;101053.16;5001358;28;45468;-77
2023/02/22 09:43:15;;;;;;;;;53.25;40.50;;;;;11.81;100.00;101057.53;5037290;28;45661;-77
2023/02/22 09:45:49;;;;;;;;;52.75;43.00;;;;;11.79;100.00;101051.34;5033242;28;45914;-75
2023/02/22 09:48:16;;;;;;;;;51.25;39.25;;;;;11.76;100.00;101046.88;4999247;28;45523;-74
2023/02/22 09:50:44;;;;;;;;;55.75;40.75;;;;;11.73;100.00;101049.53;5018872;28;45549;-77
2023/02/22 09:53:28;;;;;;;;;55.50;40.75;;;;;11.72;100.00;101047.75;5018932;28;45513;-73
2023/02/22 09:55:57;;;;;;;;;49.75;38.25;;;;;11.74;100.00;101053.06;5035820;28;46682;-74
2023/02/22 09:58:32;;;;;;;;;51.25;40.75;;;;;11.72;100.00;101046.88;5016585;28;45541;-73
2023/02/22 10:01:17;;;;;;;;;59.25;44.50;;;;;11.72;100.00;101044.22;5016275;28;45600;-74
2023/02/22 10:03:58;;;;;;;;;55.00;43.25;;;;;11.74;100.00;101047.75;5013487;28;45541;-75
2023/02/22 10:06:25;;;;;;;;;52.50;40.75;;;;;11.81;100.00;101049.59;5039392;28;46617;-74
2023/02/22 10:08:55;;;;;;;;;49.25;40.00;;;;;11.84;100.00;101051.44;5017888;28;45520;-74
2023/02/22 10:11:29;;;;;;;;;56.00;42.00;;;;;11.90;100.00;101043.53;5036780;28;45496;-74
2023/02/22 10:14:29;;;;;;;;;55.75;40.75;;;;;11.93;100.00;101055.03;5036350;28;45449;-76
2023/02/22 10:17:22;;;;;;;;;60.00;43.50;;;;;11.97;100.00;101058.59;5033773;28;46822;-76
2023/02/22 10:19:58;;;;;;;;;54.25;41.75;;;;;11.98;100.00;101055.06;5020930;28;45390;-74
2023/02/22 10:22:38;;;;;;;;;57.25;44.25;;;;;12.00;100.00;101055.97;5036584;28;45249;-74
2023/02/22 10:25:16;;;;;;;;;55.75;43.00;;;;;12.03;100.00;101051.56;5033686;28;45640;-75
2023/02/22 10:27:46;;;;;;;;;53.25;41.75;;;;;12.04;100.00;101045.44;5025342;28;46625;-74
2023/02/22 10:30:27;;;;;;;;;56.00;41.00;;;;;12.07;100.00;101053.38;5036060;28;45507;-76
2023/02/22 10:33:03;;;;;;;;;54.00;42.00;;;;;12.10;100.00;101059.59;5025532;28;45320;-74
2023/02/22 10:35:32;;;;;;;;;56.75;42.25;;;;;12.05;100.00;101057.78;5022805;28;45240;-75
2023/02/22 10:38:05;;;;;;;;;51.50;42.50;;;;;12.01;100.00;101066.56;5014486;28;47578;-75
2023/02/22 10:40:31;;;;;;;;;56.75;41.00;;;;;11.96;100.00;101060.34;5023310;28;45287;-74
2023/02/22 10:43:04;;;;;;;;;55.00;42.00;;;;;11.89;100.00;101058.53;5036026;28;45334;-74
2023/02/22 10:45:32;;;;;;;;;60.50;44.50;;;;;11.87;100.00;101056.72;5035416;28;45306;-76
2023/02/22 10:48:00;;;;;;;;;48.75;37.75;;;;;11.86;100.00;101063.78;5034721;28;46630;-74
2023/02/22 10:50:30;;;;;;;;;56.75;40.50;;;;;11.86;100.00;101077.00;5017385;28;46187;-75
2023/02/22 10:52:55;;;;;;;;;58.25;46.50;;;;;11.87;100.00;101075.25;5001296;28;45557;-73
2023/02/22 10:55:21;;;;;;;;;53.00;41.50;;;;;11.84;100.00;101068.19;5035745;28;45448;-76
2023/02/22 10:57:49;;;;;;;;;57.00;42.00;;;;;11.83;100.00;101061.13;5034783;28;45487;-76
2023/02/22 11:00:25;;;;;;;;;56.75;41.75;;;;;11.84;100.00;101072.59;5016801;28;45542;-74
2023/02/22 11:02:58;;;;;;;;;61.25;45.50;;;;;11.83;100.00;101076.13;5036183;28;45416;-74
2023/02/22 11:05:36;;;;;;;;;49.75;37.75;;;;;11.81;100.00;101073.41;5020461;28;45453;-76
2023/02/22 11:08:27;;;;;;;;;56.00;40.25;;;;;11.83;100.00;101069.06;5015148;28;46120;-75